sensor_id;sensor_type;location;lat;lon;timestamp;P1;durP1;ratioP1;P2;durP2;ratioP2
35056;SDS011;21241;51.828;19.574;2023-05-24T00:00:06;6.30;;;5.70;;
35056;SDS011;21241;51.828;19.574;2023-05-24T00:03:00;6.70;;;6.20;;
35056;SDS011;21241;51.828;19.574;2023-05-24T00:05:31;6.60;;;6.20;;
35056;SDS011;21241;51.828;19.574;2023-05-24T00:08:00;6.50;;;6.00;;
35056;SDS011;21241;51.828;19.574;2023-05-24T00:10:28;6.50;;;5.90;;
35056;SDS011;21241;51.828;19.574;2023-05-24T00:12:56;6.70;;;6.20;;
35056;SDS011;21241;51.828;19.574;2023-05-24T00:15:23;6.50;;;5.90;;
35056;SDS011;21241;51.828;19.574;2023-05-24T00:17:51;6.40;;;6.00;;
35056;SDS011;21241;51.828;19.574;2023-05-24T00:20:19;6.90;;;6.40;;
35056;SDS011;21241;51.828;19.574;2023-05-24T00:22:47;6.60;;;6.10;;
35056;SDS011;21241;51.828;19.574;2023-05-24T00:25:15;7.40;;;6.70;;
35056;SDS011;21241;51.828;19.574;2023-05-24T00:27:43;7.30;;;6.80;;
35056;SDS011;21241;51.828;19.574;2023-05-24T00:30:11;8.20;;;7.50;;
35056;SDS011;21241;51.828;19.574;2023-05-24T00:32:39;8.20;;;7.70;;
35056;SDS011;21241;51.828;19.574;2023-05-24T00:35:07;8.00;;;7.30;;
35056;SDS011;21241;51.828;19.574;2023-05-24T00:37:34;8.10;;;7.50;;
35056;SDS011;21241;51.828;19.574;2023-05-24T00:40:04;8.40;;;7.70;;
35056;SDS011;21241;51.828;19.574;2023-05-24T00:42:32;8.80;;;8.00;;
35056;SDS011;21241;51.828;19.574;2023-05-24T00:45:00;9.00;;;8.20;;
35056;SDS011;21241;51.828;19.574;2023-05-24T00:47:28;9.60;;;8.90;;
35056;SDS011;21241;51.828;19.574;2023-05-24T00:49:56;11.10;;;10.20;;
35056;SDS011;21241;51.828;19.574;2023-05-24T00:52:24;11.90;;;10.80;;
35056;SDS011;21241;51.828;19.574;2023-05-24T00:54:52;13.80;;;12.70;;
35056;SDS011;21241;51.828;19.574;2023-05-24T00:57:19;13.30;;;12.30;;
35056;SDS011;21241;51.828;19.574;2023-05-24T00:59:48;13.90;;;12.70;;
35056;SDS011;21241;51.828;19.574;2023-05-24T01:02:15;14.30;;;13.20;;
35056;SDS011;21241;51.828;19.574;2023-05-24T01:04:46;14.30;;;13.20;;
35056;SDS011;21241;51.828;19.574;2023-05-24T01:07:23;15.80;;;14.60;;
35056;SDS011;21241;51.828;19.574;2023-05-24T01:10:10;14.20;;;13.20;;
35056;SDS011;21241;51.828;19.574;2023-05-24T01:15:30;15.80;;;14.50;;
35056;SDS011;21241;51.828;19.574;2023-05-24T01:18:10;15.70;;;14.60;;
35056;SDS011;21241;51.828;19.574;2023-05-24T01:20:42;16.00;;;14.60;;
35056;SDS011;21241;51.828;19.574;2023-05-24T01:23:17;16.00;;;14.70;;
35056;SDS011;21241;51.828;19.574;2023-05-24T01:28:45;16.10;;;14.90;;
35056;SDS011;21241;51.828;19.574;2023-05-24T01:31:14;16.10;;;14.80;;
35056;SDS011;21241;51.828;19.574;2023-05-24T01:33:43;16.40;;;15.00;;
35056;SDS011;21241;51.828;19.574;2023-05-24T01:36:11;15.60;;;14.40;;
35056;SDS011;21241;51.828;19.574;2023-05-24T01:38:39;15.70;;;14.60;;
35056;SDS011;21241;51.828;19.574;2023-05-24T01:41:14;15.60;;;14.50;;
35056;SDS011;21241;51.828;19.574;2023-05-24T01:44:09;15.50;;;14.50;;
35056;SDS011;21241;51.828;19.574;2023-05-24T01:46:42;18.10;;;16.70;;
35056;SDS011;21241;51.828;19.574;2023-05-24T01:49:26;17.70;;;16.40;;
35056;SDS011;21241;51.828;19.574;2023-05-24T01:52:04;15.90;;;14.80;;
35056;SDS011;21241;51.828;19.574;2023-05-24T01:54:36;16.80;;;15.50;;
35056;SDS011;21241;51.828;19.574;2023-05-24T01:57:06;16.90;;;15.60;;
35056;SDS011;21241;51.828;19.574;2023-05-24T01:59:35;17.20;;;15.80;;
35056;SDS011;21241;51.828;19.574;2023-05-24T02:02:05;17.40;;;16.10;;
35056;SDS011;21241;51.828;19.574;2023-05-24T02:04:33;18.80;;;17.20;;
35056;SDS011;21241;51.828;19.574;2023-05-24T02:07:01;19.80;;;18.30;;
35056;SDS011;21241;51.828;19.574;2023-05-24T02:09:28;20.90;;;19.30;;
35056;SDS011;21241;51.828;19.574;2023-05-24T02:11:56;20.80;;;19.20;;
35056;SDS011;21241;51.828;19.574;2023-05-24T02:14:24;21.70;;;20.00;;
35056;SDS011;21241;51.828;19.574;2023-05-24T02:16:52;22.00;;;20.30;;
35056;SDS011;21241;51.828;19.574;2023-05-24T02:19:25;23.60;;;21.80;;
35056;SDS011;21241;51.828;19.574;2023-05-24T02:21:53;21.80;;;20.20;;
35056;SDS011;21241;51.828;19.574;2023-05-24T02:24:21;24.40;;;22.50;;
35056;SDS011;21241;51.828;19.574;2023-05-24T02:26:48;23.90;;;22.30;;
35056;SDS011;21241;51.828;19.574;2023-05-24T02:29:16;22.40;;;20.90;;
35056;SDS011;21241;51.828;19.574;2023-05-24T02:31:44;23.70;;;22.00;;
35056;SDS011;21241;51.828;19.574;2023-05-24T02:34:12;24.50;;;22.80;;
35056;SDS011;21241;51.828;19.574;2023-05-24T02:36:39;25.70;;;23.80;;
35056;SDS011;21241;51.828;19.574;2023-05-24T02:39:07;24.50;;;22.70;;
35056;SDS011;21241;51.828;19.574;2023-05-24T02:41:34;24.70;;;23.00;;
35056;SDS011;21241;51.828;19.574;2023-05-24T02:44:03;24.50;;;22.50;;
35056;SDS011;21241;51.828;19.574;2023-05-24T02:46:31;26.00;;;23.90;;
35056;SDS011;21241;51.828;19.574;2023-05-24T02:48:59;26.30;;;24.40;;
35056;SDS011;21241;51.828;19.574;2023-05-24T02:51:26;27.10;;;25.10;;
35056;SDS011;21241;51.828;19.574;2023-05-24T02:53:54;27.30;;;25.30;;
35056;SDS011;21241;51.828;19.574;2023-05-24T02:56:22;28.80;;;26.80;;
35056;SDS011;21241;51.828;19.574;2023-05-24T02:58:50;29.50;;;27.20;;
35056;SDS011;21241;51.828;19.574;2023-05-24T03:01:21;29.10;;;26.90;;
35056;SDS011;21241;51.828;19.574;2023-05-24T03:03:50;29.90;;;27.70;;
35056;SDS011;21241;51.828;19.574;2023-05-24T03:06:18;31.00;;;28.70;;
35056;SDS011;21241;51.828;19.574;2023-05-24T03:08:47;30.90;;;28.40;;
35056;SDS011;21241;51.828;19.574;2023-05-24T03:11:16;31.60;;;29.40;;
35056;SDS011;21241;51.828;19.574;2023-05-24T03:13:48;31.30;;;29.10;;
35056;SDS011;21241;51.828;19.574;2023-05-24T03:16:17;30.30;;;27.90;;
35056;SDS011;21241;51.828;19.574;2023-05-24T03:18:46;29.90;;;27.50;;
35056;SDS011;21241;51.828;19.574;2023-05-24T03:21:17;30.10;;;28.00;;
35056;SDS011;21241;51.828;19.574;2023-05-24T03:23:47;31.70;;;29.30;;
35056;SDS011;21241;51.828;19.574;2023-05-24T03:26:15;32.50;;;30.10;;
35056;SDS011;21241;51.828;19.574;2023-05-24T03:28:45;32.20;;;30.00;;
35056;SDS011;21241;51.828;19.574;2023-05-24T03:31:14;31.10;;;28.90;;
35056;SDS011;21241;51.828;19.574;2023-05-24T03:33:43;32.20;;;30.00;;
35056;SDS011;21241;51.828;19.574;2023-05-24T03:36:12;31.50;;;29.20;;
35056;SDS011;21241;51.828;19.574;2023-05-24T03:38:40;31.30;;;28.80;;
35056;SDS011;21241;51.828;19.574;2023-05-24T03:41:07;31.80;;;29.50;;
35056;SDS011;21241;51.828;19.574;2023-05-24T03:43:35;32.50;;;30.20;;
35056;SDS011;21241;51.828;19.574;2023-05-24T03:46:07;31.40;;;29.20;;
35056;SDS011;21241;51.828;19.574;2023-05-24T03:48:35;32.20;;;30.00;;
35056;SDS011;21241;51.828;19.574;2023-05-24T03:51:04;33.50;;;30.90;;
35056;SDS011;21241;51.828;19.574;2023-05-24T03:53:34;31.40;;;29.30;;
35056;SDS011;21241;51.828;19.574;2023-05-24T03:56:02;32.00;;;29.70;;
35056;SDS011;21241;51.828;19.574;2023-05-24T03:58:30;33.00;;;30.70;;
35056;SDS011;21241;51.828;19.574;2023-05-24T04:00:58;33.20;;;30.80;;
35056;SDS011;21241;51.828;19.574;2023-05-24T04:03:27;32.90;;;30.70;;
35056;SDS011;21241;51.828;19.574;2023-05-24T04:05:55;34.30;;;31.90;;
35056;SDS011;21241;51.828;19.574;2023-05-24T04:08:23;34.80;;;32.30;;
35056;SDS011;21241;51.828;19.574;2023-05-24T04:10:51;34.20;;;31.80;;
35056;SDS011;21241;51.828;19.574;2023-05-24T04:13:18;34.60;;;32.20;;
35056;SDS011;21241;51.828;19.574;2023-05-24T04:15:46;35.60;;;33.20;;
35056;SDS011;21241;51.828;19.574;2023-05-24T04:18:14;36.10;;;33.70;;
35056;SDS011;21241;51.828;19.574;2023-05-24T04:20:42;36.10;;;33.60;;
35056;SDS011;21241;51.828;19.574;2023-05-24T04:23:10;35.90;;;33.50;;
35056;SDS011;21241;51.828;19.574;2023-05-24T04:25:38;34.50;;;32.20;;
35056;SDS011;21241;51.828;19.574;2023-05-24T04:28:06;35.70;;;33.20;;
35056;SDS011;21241;51.828;19.574;2023-05-24T04:30:34;35.60;;;33.10;;
35056;SDS011;21241;51.828;19.574;2023-05-24T04:33:03;34.20;;;31.80;;
35056;SDS011;21241;51.828;19.574;2023-05-24T04:35:31;35.60;;;33.10;;
35056;SDS011;21241;51.828;19.574;2023-05-24T04:37:59;34.70;;;32.40;;
35056;SDS011;21241;51.828;19.574;2023-05-24T04:40:27;35.00;;;32.40;;
35056;SDS011;21241;51.828;19.574;2023-05-24T04:42:55;34.90;;;32.30;;
35056;SDS011;21241;51.828;19.574;2023-05-24T04:45:23;34.60;;;32.10;;
35056;SDS011;21241;51.828;19.574;2023-05-24T04:47:51;34.10;;;31.60;;
35056;SDS011;21241;51.828;19.574;2023-05-24T04:50:19;34.20;;;31.80;;
35056;SDS011;21241;51.828;19.574;2023-05-24T04:52:47;33.40;;;31.10;;
35056;SDS011;21241;51.828;19.574;2023-05-24T04:55:14;31.70;;;29.60;;
35056;SDS011;21241;51.828;19.574;2023-05-24T04:57:42;32.60;;;30.40;;
35056;SDS011;21241;51.828;19.574;2023-05-24T05:00:10;33.10;;;30.90;;
35056;SDS011;21241;51.828;19.574;2023-05-24T05:02:38;32.00;;;29.70;;
35056;SDS011;21241;51.828;19.574;2023-05-24T05:05:06;30.10;;;28.10;;
35056;SDS011;21241;51.828;19.574;2023-05-24T05:07:34;28.00;;;26.10;;
35056;SDS011;21241;51.828;19.574;2023-05-24T05:10:03;28.80;;;26.80;;
35056;SDS011;21241;51.828;19.574;2023-05-24T05:12:31;28.10;;;26.00;;
35056;SDS011;21241;51.828;19.574;2023-05-24T05:14:58;27.80;;;25.70;;
35056;SDS011;21241;51.828;19.574;2023-05-24T05:17:26;25.70;;;23.90;;
35056;SDS011;21241;51.828;19.574;2023-05-24T05:19:54;26.90;;;25.10;;
35056;SDS011;21241;51.828;19.574;2023-05-24T05:22:22;26.70;;;24.80;;
35056;SDS011;21241;51.828;19.574;2023-05-24T05:24:50;26.70;;;24.80;;
35056;SDS011;21241;51.828;19.574;2023-05-24T05:27:18;28.80;;;26.50;;
35056;SDS011;21241;51.828;19.574;2023-05-24T05:29:45;27.10;;;25.10;;
35056;SDS011;21241;51.828;19.574;2023-05-24T05:32:13;26.30;;;24.40;;
35056;SDS011;21241;51.828;19.574;2023-05-24T05:34:41;27.60;;;25.60;;
35056;SDS011;21241;51.828;19.574;2023-05-24T05:37:09;25.70;;;23.90;;
35056;SDS011;21241;51.828;19.574;2023-05-24T05:39:37;26.50;;;24.70;;
35056;SDS011;21241;51.828;19.574;2023-05-24T05:42:05;27.10;;;25.40;;
35056;SDS011;21241;51.828;19.574;2023-05-24T05:44:33;25.30;;;23.50;;
35056;SDS011;21241;51.828;19.574;2023-05-24T05:47:01;24.80;;;23.20;;
35056;SDS011;21241;51.828;19.574;2023-05-24T05:49:30;26.40;;;24.60;;
35056;SDS011;21241;51.828;19.574;2023-05-24T05:51:59;24.80;;;23.00;;
35056;SDS011;21241;51.828;19.574;2023-05-24T05:54:26;25.70;;;23.90;;
35056;SDS011;21241;51.828;19.574;2023-05-24T05:56:54;23.40;;;21.80;;
35056;SDS011;21241;51.828;19.574;2023-05-24T05:59:22;22.80;;;21.30;;
35056;SDS011;21241;51.828;19.574;2023-05-24T06:01:50;22.60;;;20.90;;
35056;SDS011;21241;51.828;19.574;2023-05-24T06:04:19;23.90;;;22.30;;
35056;SDS011;21241;51.828;19.574;2023-05-24T06:06:46;23.40;;;21.80;;
35056;SDS011;21241;51.828;19.574;2023-05-24T06:09:17;22.50;;;20.80;;
35056;SDS011;21241;51.828;19.574;2023-05-24T06:11:45;22.20;;;20.70;;
35056;SDS011;21241;51.828;19.574;2023-05-24T06:14:13;23.00;;;21.40;;
35056;SDS011;21241;51.828;19.574;2023-05-24T06:16:47;21.90;;;20.40;;
35056;SDS011;21241;51.828;19.574;2023-05-24T06:19:15;22.80;;;21.20;;
35056;SDS011;21241;51.828;19.574;2023-05-24T06:21:44;21.70;;;20.00;;
35056;SDS011;21241;51.828;19.574;2023-05-24T06:24:15;20.30;;;18.90;;
35056;SDS011;21241;51.828;19.574;2023-05-24T06:26:48;21.00;;;19.40;;
35056;SDS011;21241;51.828;19.574;2023-05-24T06:29:17;20.60;;;19.20;;
35056;SDS011;21241;51.828;19.574;2023-05-24T06:31:47;20.90;;;19.40;;
35056;SDS011;21241;51.828;19.574;2023-05-24T06:34:16;20.80;;;19.40;;
35056;SDS011;21241;51.828;19.574;2023-05-24T06:36:45;20.10;;;18.70;;
35056;SDS011;21241;51.828;19.574;2023-05-24T06:39:14;21.00;;;19.40;;
35056;SDS011;21241;51.828;19.574;2023-05-24T06:41:43;19.10;;;17.90;;
35056;SDS011;21241;51.828;19.574;2023-05-24T06:44:12;20.20;;;18.80;;
35056;SDS011;21241;51.828;19.574;2023-05-24T06:46:40;19.40;;;18.10;;
35056;SDS011;21241;51.828;19.574;2023-05-24T06:49:08;19.30;;;17.90;;
35056;SDS011;21241;51.828;19.574;2023-05-24T06:51:35;20.30;;;18.90;;
35056;SDS011;21241;51.828;19.574;2023-05-24T06:54:04;19.90;;;18.20;;
35056;SDS011;21241;51.828;19.574;2023-05-24T06:56:32;19.40;;;17.80;;
35056;SDS011;21241;51.828;19.574;2023-05-24T06:58:59;19.90;;;18.50;;
35056;SDS011;21241;51.828;19.574;2023-05-24T07:01:27;19.00;;;17.70;;
35056;SDS011;21241;51.828;19.574;2023-05-24T07:03:56;20.40;;;19.10;;
35056;SDS011;21241;51.828;19.574;2023-05-24T07:06:24;18.40;;;17.10;;
35056;SDS011;21241;51.828;19.574;2023-05-24T07:08:52;19.00;;;17.50;;
35056;SDS011;21241;51.828;19.574;2023-05-24T07:11:19;19.70;;;18.20;;
35056;SDS011;21241;51.828;19.574;2023-05-24T07:13:48;18.60;;;17.30;;
35056;SDS011;21241;51.828;19.574;2023-05-24T07:16:15;20.00;;;18.50;;
35056;SDS011;21241;51.828;19.574;2023-05-24T07:18:43;19.40;;;17.80;;
35056;SDS011;21241;51.828;19.574;2023-05-24T07:21:11;19.30;;;18.00;;
35056;SDS011;21241;51.828;19.574;2023-05-24T07:23:38;18.30;;;17.00;;
35056;SDS011;21241;51.828;19.574;2023-05-24T07:26:06;17.90;;;16.60;;
35056;SDS011;21241;51.828;19.574;2023-05-24T07:28:35;17.30;;;16.20;;
35056;SDS011;21241;51.828;19.574;2023-05-24T07:31:05;17.20;;;16.00;;
35056;SDS011;21241;51.828;19.574;2023-05-24T07:33:35;16.00;;;14.90;;
35056;SDS011;21241;51.828;19.574;2023-05-24T07:36:04;16.20;;;15.10;;
35056;SDS011;21241;51.828;19.574;2023-05-24T07:38:33;15.00;;;14.10;;
35056;SDS011;21241;51.828;19.574;2023-05-24T07:41:02;15.80;;;14.80;;
35056;SDS011;21241;51.828;19.574;2023-05-24T07:43:31;16.00;;;15.00;;
35056;SDS011;21241;51.828;19.574;2023-05-24T07:45:59;16.80;;;15.60;;
35056;SDS011;21241;51.828;19.574;2023-05-24T07:48:27;16.10;;;14.90;;
35056;SDS011;21241;51.828;19.574;2023-05-24T07:50:55;18.10;;;16.80;;
35056;SDS011;21241;51.828;19.574;2023-05-24T07:53:23;18.20;;;17.00;;
35056;SDS011;21241;51.828;19.574;2023-05-24T07:55:51;17.70;;;16.50;;
35056;SDS011;21241;51.828;19.574;2023-05-24T07:58:18;17.50;;;16.10;;
35056;SDS011;21241;51.828;19.574;2023-05-24T08:00:46;17.30;;;16.10;;
35056;SDS011;21241;51.828;19.574;2023-05-24T08:03:14;16.50;;;15.30;;
35056;SDS011;21241;51.828;19.574;2023-05-24T08:05:44;17.40;;;16.00;;
35056;SDS011;21241;51.828;19.574;2023-05-24T08:08:12;18.20;;;17.00;;
35056;SDS011;21241;51.828;19.574;2023-05-24T08:10:40;17.80;;;16.50;;
35056;SDS011;21241;51.828;19.574;2023-05-24T08:13:08;17.70;;;16.50;;
35056;SDS011;21241;51.828;19.574;2023-05-24T08:15:35;17.80;;;16.50;;
35056;SDS011;21241;51.828;19.574;2023-05-24T08:18:03;17.70;;;16.40;;
35056;SDS011;21241;51.828;19.574;2023-05-24T08:20:31;17.00;;;15.80;;
35056;SDS011;21241;51.828;19.574;2023-05-24T08:23:03;16.50;;;15.30;;
35056;SDS011;21241;51.828;19.574;2023-05-24T08:25:30;16.30;;;15.10;;
35056;SDS011;21241;51.828;19.574;2023-05-24T08:27:58;16.40;;;15.20;;
35056;SDS011;21241;51.828;19.574;2023-05-24T08:30:26;16.40;;;15.20;;
35056;SDS011;21241;51.828;19.574;2023-05-24T08:32:54;17.30;;;15.90;;
35056;SDS011;21241;51.828;19.574;2023-05-24T08:35:22;16.70;;;15.50;;
35056;SDS011;21241;51.828;19.574;2023-05-24T08:37:50;15.70;;;14.60;;
35056;SDS011;21241;51.828;19.574;2023-05-24T08:40:18;15.70;;;14.50;;
35056;SDS011;21241;51.828;19.574;2023-05-24T08:42:47;14.50;;;13.40;;
35056;SDS011;21241;51.828;19.574;2023-05-24T08:45:16;15.50;;;14.20;;
35056;SDS011;21241;51.828;19.574;2023-05-24T08:47:44;15.90;;;14.60;;
35056;SDS011;21241;51.828;19.574;2023-05-24T08:50:13;16.00;;;14.80;;
35056;SDS011;21241;51.828;19.574;2023-05-24T08:52:42;15.60;;;14.40;;
35056;SDS011;21241;51.828;19.574;2023-05-24T08:55:10;15.70;;;14.50;;
35056;SDS011;21241;51.828;19.574;2023-05-24T08:57:38;15.80;;;14.70;;
35056;SDS011;21241;51.828;19.574;2023-05-24T09:00:08;15.00;;;13.80;;
35056;SDS011;21241;51.828;19.574;2023-05-24T09:02:38;16.90;;;15.60;;
35056;SDS011;21241;51.828;19.574;2023-05-24T09:05:11;15.00;;;13.90;;
35056;SDS011;21241;51.828;19.574;2023-05-24T09:07:43;14.40;;;13.20;;
35056;SDS011;21241;51.828;19.574;2023-05-24T09:10:11;15.30;;;14.20;;
35056;SDS011;21241;51.828;19.574;2023-05-24T09:12:43;14.40;;;13.20;;
35056;SDS011;21241;51.828;19.574;2023-05-24T09:15:12;14.80;;;13.70;;
35056;SDS011;21241;51.828;19.574;2023-05-24T09:17:39;14.20;;;12.90;;
35056;SDS011;21241;51.828;19.574;2023-05-24T09:20:08;15.60;;;14.40;;
35056;SDS011;21241;51.828;19.574;2023-05-24T09:22:37;14.20;;;13.10;;
35056;SDS011;21241;51.828;19.574;2023-05-24T09:25:09;13.60;;;12.60;;
35056;SDS011;21241;51.828;19.574;2023-05-24T09:27:40;14.60;;;13.40;;
35056;SDS011;21241;51.828;19.574;2023-05-24T09:30:08;14.10;;;13.00;;
35056;SDS011;21241;51.828;19.574;2023-05-24T09:32:37;13.40;;;12.50;;
35056;SDS011;21241;51.828;19.574;2023-05-24T09:35:08;14.70;;;13.40;;
35056;SDS011;21241;51.828;19.574;2023-05-24T09:37:37;13.60;;;12.60;;
35056;SDS011;21241;51.828;19.574;2023-05-24T09:40:10;13.30;;;12.30;;
35056;SDS011;21241;51.828;19.574;2023-05-24T09:42:45;12.80;;;11.80;;
35056;SDS011;21241;51.828;19.574;2023-05-24T09:45:13;14.00;;;12.60;;
35056;SDS011;21241;51.828;19.574;2023-05-24T09:47:41;14.30;;;12.90;;
35056;SDS011;21241;51.828;19.574;2023-05-24T09:50:12;12.60;;;11.40;;
35056;SDS011;21241;51.828;19.574;2023-05-24T09:52:41;12.10;;;11.20;;
35056;SDS011;21241;51.828;19.574;2023-05-24T09:55:16;13.20;;;12.30;;
35056;SDS011;21241;51.828;19.574;2023-05-24T09:58:01;12.70;;;11.90;;
35056;SDS011;21241;51.828;19.574;2023-05-24T10:00:34;14.50;;;13.20;;
35056;SDS011;21241;51.828;19.574;2023-05-24T10:03:03;13.10;;;12.20;;
35056;SDS011;21241;51.828;19.574;2023-05-24T10:05:36;12.30;;;11.30;;
35056;SDS011;21241;51.828;19.574;2023-05-24T10:08:04;12.70;;;11.80;;
35056;SDS011;21241;51.828;19.574;2023-05-24T10:10:32;13.80;;;12.70;;
35056;SDS011;21241;51.828;19.574;2023-05-24T10:13:00;13.20;;;12.30;;
35056;SDS011;21241;51.828;19.574;2023-05-24T10:15:29;13.20;;;12.20;;
35056;SDS011;21241;51.828;19.574;2023-05-24T10:17:57;12.20;;;11.30;;
35056;SDS011;21241;51.828;19.574;2023-05-24T10:20:38;12.40;;;11.50;;
35056;SDS011;21241;51.828;19.574;2023-05-24T10:23:09;12.80;;;11.80;;
35056;SDS011;21241;51.828;19.574;2023-05-24T10:25:37;12.50;;;11.60;;
35056;SDS011;21241;51.828;19.574;2023-05-24T10:28:09;12.40;;;11.60;;
35056;SDS011;21241;51.828;19.574;2023-05-24T10:30:45;14.10;;;12.90;;
35056;SDS011;21241;51.828;19.574;2023-05-24T10:33:15;12.30;;;11.50;;
35056;SDS011;21241;51.828;19.574;2023-05-24T10:35:43;12.40;;;11.60;;
35056;SDS011;21241;51.828;19.574;2023-05-24T10:38:12;12.20;;;11.30;;
35056;SDS011;21241;51.828;19.574;2023-05-24T10:40:40;12.30;;;11.40;;
35056;SDS011;21241;51.828;19.574;2023-05-24T10:43:08;12.30;;;11.50;;
35056;SDS011;21241;51.828;19.574;2023-05-24T10:45:37;12.50;;;11.70;;
35056;SDS011;21241;51.828;19.574;2023-05-24T10:50:40;11.70;;;10.90;;
35056;SDS011;21241;51.828;19.574;2023-05-24T10:53:13;11.90;;;11.10;;
35056;SDS011;21241;51.828;19.574;2023-05-24T10:59:20;13.40;;;12.50;;
35056;SDS011;21241;51.828;19.574;2023-05-24T11:01:33;12.90;;;11.90;;
35056;SDS011;21241;51.828;19.574;2023-05-24T11:04:06;14.20;;;13.20;;
35056;SDS011;21241;51.828;19.574;2023-05-24T11:06:48;13.70;;;12.70;;
35056;SDS011;21241;51.828;19.574;2023-05-24T11:09:17;13.80;;;12.70;;
35056;SDS011;21241;51.828;19.574;2023-05-24T11:11:47;13.70;;;12.70;;
35056;SDS011;21241;51.828;19.574;2023-05-24T11:14:36;13.50;;;12.50;;
35056;SDS011;21241;51.828;19.574;2023-05-24T11:17:06;14.00;;;12.90;;
35056;SDS011;21241;51.828;19.574;2023-05-24T11:19:35;13.30;;;12.30;;
35056;SDS011;21241;51.828;19.574;2023-05-24T11:22:07;13.90;;;12.90;;
35056;SDS011;21241;51.828;19.574;2023-05-24T11:24:35;13.00;;;12.00;;
35056;SDS011;21241;51.828;19.574;2023-05-24T11:27:04;13.40;;;12.50;;
35056;SDS011;21241;51.828;19.574;2023-05-24T11:29:39;13.20;;;12.20;;
35056;SDS011;21241;51.828;19.574;2023-05-24T11:32:07;11.50;;;10.60;;
35056;SDS011;21241;51.828;19.574;2023-05-24T11:34:36;12.60;;;11.70;;
35056;SDS011;21241;51.828;19.574;2023-05-24T11:37:04;11.30;;;10.60;;
35056;SDS011;21241;51.828;19.574;2023-05-24T11:39:33;11.40;;;10.70;;
35056;SDS011;21241;51.828;19.574;2023-05-24T11:42:03;12.40;;;11.60;;
35056;SDS011;21241;51.828;19.574;2023-05-24T11:44:31;12.10;;;11.10;;
35056;SDS011;21241;51.828;19.574;2023-05-24T11:47:00;11.50;;;10.80;;
35056;SDS011;21241;51.828;19.574;2023-05-24T11:49:28;12.70;;;11.80;;
35056;SDS011;21241;51.828;19.574;2023-05-24T11:51:57;12.30;;;11.30;;
35056;SDS011;21241;51.828;19.574;2023-05-24T11:54:26;12.70;;;11.70;;
35056;SDS011;21241;51.828;19.574;2023-05-24T11:56:55;11.60;;;10.80;;
35056;SDS011;21241;51.828;19.574;2023-05-24T11:59:25;11.30;;;10.50;;
35056;SDS011;21241;51.828;19.574;2023-05-24T12:01:56;11.60;;;10.70;;
35056;SDS011;21241;51.828;19.574;2023-05-24T12:04:27;12.40;;;11.60;;
35056;SDS011;21241;51.828;19.574;2023-05-24T12:06:56;12.70;;;11.80;;
35056;SDS011;21241;51.828;19.574;2023-05-24T12:09:25;12.30;;;11.40;;
35056;SDS011;21241;51.828;19.574;2023-05-24T12:11:53;12.10;;;11.10;;
35056;SDS011;21241;51.828;19.574;2023-05-24T12:14:22;12.60;;;11.70;;
35056;SDS011;21241;51.828;19.574;2023-05-24T12:16:54;12.20;;;11.10;;
35056;SDS011;21241;51.828;19.574;2023-05-24T12:19:23;13.90;;;12.90;;
35056;SDS011;21241;51.828;19.574;2023-05-24T12:22:03;13.20;;;12.30;;
35056;SDS011;21241;51.828;19.574;2023-05-24T12:24:33;13.20;;;12.10;;
35056;SDS011;21241;51.828;19.574;2023-05-24T12:27:02;13.10;;;12.10;;
35056;SDS011;21241;51.828;19.574;2023-05-24T12:29:38;13.10;;;12.30;;
35056;SDS011;21241;51.828;19.574;2023-05-24T12:32:09;12.90;;;11.90;;
35056;SDS011;21241;51.828;19.574;2023-05-24T12:34:42;14.70;;;13.50;;
35056;SDS011;21241;51.828;19.574;2023-05-24T12:37:11;12.70;;;11.90;;
35056;SDS011;21241;51.828;19.574;2023-05-24T12:39:40;14.00;;;13.10;;
35056;SDS011;21241;51.828;19.574;2023-05-24T12:42:11;13.80;;;12.80;;
35056;SDS011;21241;51.828;19.574;2023-05-24T12:44:41;15.70;;;14.50;;
35056;SDS011;21241;51.828;19.574;2023-05-24T12:47:09;16.40;;;15.20;;
35056;SDS011;21241;51.828;19.574;2023-05-24T12:49:38;16.80;;;15.60;;
35056;SDS011;21241;51.828;19.574;2023-05-24T12:52:06;16.20;;;15.10;;
35056;SDS011;21241;51.828;19.574;2023-05-24T12:54:34;16.50;;;15.50;;
35056;SDS011;21241;51.828;19.574;2023-05-24T12:57:02;16.60;;;15.50;;
35056;SDS011;21241;51.828;19.574;2023-05-24T12:59:31;15.90;;;14.70;;
35056;SDS011;21241;51.828;19.574;2023-05-24T13:01:59;16.20;;;15.20;;
35056;SDS011;21241;51.828;19.574;2023-05-24T13:04:28;16.20;;;15.10;;
35056;SDS011;21241;51.828;19.574;2023-05-24T13:06:58;16.10;;;15.00;;
35056;SDS011;21241;51.828;19.574;2023-05-24T13:09:26;16.90;;;15.70;;
35056;SDS011;21241;51.828;19.574;2023-05-24T13:11:54;16.60;;;15.40;;
35056;SDS011;21241;51.828;19.574;2023-05-24T13:14:22;17.40;;;16.30;;
35056;SDS011;21241;51.828;19.574;2023-05-24T13:16:50;17.70;;;16.40;;
35056;SDS011;21241;51.828;19.574;2023-05-24T13:19:19;18.00;;;16.60;;
35056;SDS011;21241;51.828;19.574;2023-05-24T13:21:47;17.00;;;15.60;;
35056;SDS011;21241;51.828;19.574;2023-05-24T13:24:15;17.70;;;16.40;;
35056;SDS011;21241;51.828;19.574;2023-05-24T13:26:44;17.10;;;15.90;;
35056;SDS011;21241;51.828;19.574;2023-05-24T13:29:12;16.70;;;15.40;;
35056;SDS011;21241;51.828;19.574;2023-05-24T13:31:43;17.50;;;16.20;;
35056;SDS011;21241;51.828;19.574;2023-05-24T13:34:11;19.20;;;17.90;;
35056;SDS011;21241;51.828;19.574;2023-05-24T13:36:40;17.80;;;16.70;;
35056;SDS011;21241;51.828;19.574;2023-05-24T13:39:08;18.30;;;17.00;;
35056;SDS011;21241;51.828;19.574;2023-05-24T13:41:41;17.90;;;16.70;;
35056;SDS011;21241;51.828;19.574;2023-05-24T13:44:11;17.50;;;16.30;;
35056;SDS011;21241;51.828;19.574;2023-05-24T13:46:40;19.10;;;17.80;;
35056;SDS011;21241;51.828;19.574;2023-05-24T13:49:08;19.20;;;17.80;;
35056;SDS011;21241;51.828;19.574;2023-05-24T13:51:36;18.20;;;16.90;;
35056;SDS011;21241;51.828;19.574;2023-05-24T13:54:04;19.10;;;17.80;;
35056;SDS011;21241;51.828;19.574;2023-05-24T13:56:34;18.50;;;17.20;;
35056;SDS011;21241;51.828;19.574;2023-05-24T13:59:03;20.10;;;18.70;;
35056;SDS011;21241;51.828;19.574;2023-05-24T14:01:32;18.40;;;17.10;;
35056;SDS011;21241;51.828;19.574;2023-05-24T14:04:04;18.40;;;17.20;;
35056;SDS011;21241;51.828;19.574;2023-05-24T14:06:32;17.10;;;16.00;;
35056;SDS011;21241;51.828;19.574;2023-05-24T14:09:01;17.00;;;15.80;;
35056;SDS011;21241;51.828;19.574;2023-05-24T14:11:28;18.40;;;17.20;;
35056;SDS011;21241;51.828;19.574;2023-05-24T14:13:58;18.30;;;16.90;;
35056;SDS011;21241;51.828;19.574;2023-05-24T14:16:30;17.90;;;16.50;;
35056;SDS011;21241;51.828;19.574;2023-05-24T14:18:58;19.30;;;17.90;;
35056;SDS011;21241;51.828;19.574;2023-05-24T14:21:26;19.50;;;18.10;;
35056;SDS011;21241;51.828;19.574;2023-05-24T14:23:54;17.50;;;16.40;;
35056;SDS011;21241;51.828;19.574;2023-05-24T14:26:22;16.80;;;15.60;;
35056;SDS011;21241;51.828;19.574;2023-05-24T14:28:50;17.70;;;16.50;;
35056;SDS011;21241;51.828;19.574;2023-05-24T14:31:23;17.30;;;16.20;;
35056;SDS011;21241;51.828;19.574;2023-05-24T14:33:51;16.20;;;15.20;;